Time;durP1;ratioP1;P1;durP2;ratioP2;P2;SDS_P1;SDS_P2;PMS_P1;PMS_P2;Temp;Humidity;BMP_temperature;BMP_pressure;BME280_temperature;BME280_humidity;BME280_pressure;Samples;Min_cycle;Max_cycle;Signal;HPM_P1;HPM_P2
2021/12/03 00:00:53;;;;;;;10.10;4.90;;;;;;;1.04;65.30;98829.25;104427;1320;24078;-82
2021/12/03 00:03:21;;;;;;;8.70;4.90;;;;;;;1.02;65.40;98842.43;104203;1320;24003;-82
2021/12/03 00:05:50;;;;;;;8.60;5.00;;;;;;;0.97;65.47;98839.64;104013;1320;23043;-82
2021/12/03 00:08:18;;;;;;;9.10;4.70;;;;;;;1.01;65.65;98847.11;103833;1320;22579;-84
2021/12/03 00:10:53;;;;;;;7.80;4.80;;;;;;;1.06;65.60;98854.23;103553;1319;24436;-81
2021/12/03 00:13:22;;;;;;;7.20;4.40;;;;;;;1.09;65.51;98853.05;103686;1319;22586;-82
2021/12/03 00:15:50;;;;;;;12.20;5.00;;;;;;;1.08;65.57;98852.34;103725;1319;22594;-82
2021/12/03 00:18:18;;;;;;;7.30;4.10;;;;;;;1.11;65.62;98846.98;103692;1319;22590;-81
2021/12/03 00:20:47;;;;;;;6.80;4.10;;;;;;;1.15;65.62;98843.53;103889;1319;22635;-80
2021/12/03 00:23:14;;;;;;;8.90;4.50;;;;;;;1.14;65.64;98843.52;103892;1314;24224;-80
2021/12/03 00:25:42;;;;;;;7.10;3.90;;;;;;;1.12;65.61;98849.41;103734;1320;25395;-79
2021/12/03 00:28:09;;;;;;;8.30;4.90;;;;;;;1.05;65.64;98846.77;103778;1320;22677;-79
2021/12/03 00:30:37;;;;;;;6.70;4.00;;;;;;;0.97;65.68;98845.35;103904;1320;22578;-80
2021/12/03 00:33:06;;;;;;;8.00;4.30;;;;;;;0.90;65.87;98847.23;103827;1318;22579;-80
2021/12/03 00:35:33;;;;;;;9.80;5.00;;;;;;;0.86;66.14;98861.41;103774;1320;22589;-82
2021/12/03 00:38:01;;;;;;;9.60;4.50;;;;;;;0.84;66.11;98864.35;103478;1318;24282;-82
2021/12/03 00:40:35;;;;;;;9.30;5.10;;;;;;;0.84;66.35;98861.92;103445;1319;26996;-85
2021/12/03 00:43:03;;;;;;;9.00;5.20;;;;;;;0.92;66.34;98867.16;103118;1321;25256;-87
2021/12/03 00:45:32;;;;;;;8.50;4.80;;;;;;;0.92;66.19;98870.12;102763;1329;22535;-87
2021/12/03 00:48:00;;;;;;;7.30;4.60;;;;;;;0.90;66.27;98876.34;102457;1329;23098;-87
2021/12/03 00:50:29;;;;;;;9.90;4.80;;;;;;;0.89;66.30;98886.91;103008;1330;22696;-91
2021/12/03 00:52:57;;;;;;;9.10;5.10;;;;;;;0.90;66.34;98895.07;102759;1329;25344;-90
2021/12/03 00:55:27;;;;;;;8.40;4.50;;;;;;;0.86;66.30;98898.86;102490;1330;22682;-89
2021/12/03 00:57:54;;;;;;;6.70;3.80;;;;;;;0.79;66.48;98897.25;102558;1330;22582;-90
2021/12/03 01:00:25;;;;;;;6.60;3.50;;;;;;;0.76;66.56;98900.70;102608;1330;23441;-85
2021/12/03 01:02:55;;;;;;;9.00;4.20;;;;;;;0.77;66.69;98910.05;102587;1326;22596;-82
2021/12/03 01:05:23;;;;;;;7.40;4.40;;;;;;;0.74;66.62;98912.13;103322;1319;22593;-84
2021/12/03 01:07:50;;;;;;;8.80;4.50;;;;;;;0.75;66.75;98912.30;103106;1320;25345;-83
2021/12/03 01:10:17;;;;;;;8.60;4.40;;;;;;;0.77;66.78;98918.55;103341;1319;23515;-85
2021/12/03 01:12:45;;;;;;;7.20;4.10;;;;;;;0.74;66.79;98909.52;103465;1318;22731;-86
2021/12/03 01:15:17;;;;;;;7.80;4.10;;;;;;;0.73;66.87;98906.58;103409;1317;25335;-86
2021/12/03 01:17:45;;;;;;;10.20;5.20;;;;;;;0.75;66.93;98904.67;103452;1317;23998;-86
2021/12/03 01:20:14;;;;;;;9.00;4.30;;;;;;;0.82;66.89;98906.97;103315;1319;24327;-86
2021/12/03 01:22:43;;;;;;;7.90;4.40;;;;;;;0.85;66.86;98910.11;103483;1319;23936;-84
2021/12/03 01:25:12;;;;;;;8.70;4.40;;;;;;;0.91;66.85;98910.50;103151;1320;25397;-85
2021/12/03 01:27:39;;;;;;;8.40;4.30;;;;;;;0.93;66.85;98916.05;103187;1320;22578;-83
2021/12/03 01:30:11;;;;;;;5.90;3.90;;;;;;;0.90;66.68;98920.20;103418;1317;22577;-83
2021/12/03 01:32:39;;;;;;;5.90;3.80;;;;;;;0.86;66.71;98919.13;103344;1319;23175;-87
2021/12/03 01:35:07;;;;;;;7.30;4.50;;;;;;;0.80;66.74;98921.17;103373;1319;22568;-82
2021/12/03 01:37:35;;;;;;;8.20;4.70;;;;;;;0.78;66.95;98927.23;103327;1320;23020;-84
2021/12/03 01:40:07;;;;;;;7.40;4.00;;;;;;;0.83;67.01;98931.94;103643;1319;22627;-84
2021/12/03 01:42:34;;;;;;;8.50;4.30;;;;;;;0.86;66.95;98931.80;103678;1319;24429;-84
2021/12/03 01:45:01;;;;;;;6.70;3.50;;;;;;;0.91;67.01;98936.16;103374;1313;25316;-82
2021/12/03 01:47:28;;;;;;;9.70;4.80;;;;;;;0.93;66.92;98936.33;103349;1320;22583;-82
2021/12/03 01:49:56;;;;;;;8.40;4.80;;;;;;;0.95;66.92;98937.56;103534;1316;24302;-81
2021/12/03 01:52:23;;;;;;;7.70;4.00;;;;;;;0.89;66.68;98944.98;103489;1319;25397;-80
2021/12/03 01:54:50;;;;;;;6.00;4.20;;;;;;;0.82;66.85;98950.80;103387;1320;22586;-84
2021/12/03 01:57:17;;;;;;;6.00;3.70;;;;;;;0.80;67.01;98955.83;103422;1318;22637;-81
2021/12/03 01:59:44;;;;;;;8.00;4.30;;;;;;;0.82;67.01;98954.80;103711;1317;25252;-84
2021/12/03 02:02:13;;;;;;;7.90;4.90;;;;;;;0.80;67.03;98955.15;103557;1319;24242;-85
2021/12/03 02:04:40;;;;;;;7.60;4.30;;;;;;;0.84;67.11;98951.88;103322;1319;25405;-84
2021/12/03 02:07:07;;;;;;;7.00;4.50;;;;;;;0.85;67.14;98960.20;103284;1320;22740;-84
2021/12/03 02:09:35;;;;;;;7.20;4.10;;;;;;;0.88;67.16;98963.51;103294;1319;22590;-83
2021/12/03 02:12:02;;;;;;;6.60;4.10;;;;;;;0.94;67.21;98968.41;103514;1319;22997;-82
2021/12/03 02:14:29;;;;;;;5.70;3.50;;;;;;;0.96;66.97;98968.61;103075;1322;22608;-83
2021/12/03 02:16:56;;;;;;;7.10;3.90;;;;;;;0.98;67.00;98966.89;103008;1325;22606;-83
2021/12/03 02:19:24;;;;;;;7.80;4.60;;;;;;;0.98;66.88;98967.05;103209;1323;25314;-83
2021/12/03 02:21:51;;;;;;;8.20;5.00;;;;;;;0.93;66.89;98961.31;102873;1325;22647;-84
2021/12/03 02:24:21;;;;;;;10.20;5.20;;;;;;;0.92;66.85;98967.36;103150;1325;22596;-83
2021/12/03 02:26:50;;;;;;;6.80;4.40;;;;;;;0.83;66.94;98975.44;102973;1325;24710;-82
2021/12/03 02:29:17;;;;;;;8.10;4.80;;;;;;;0.76;67.04;98979.20;102848;1325;22575;-83
2021/12/03 02:31:44;;;;;;;8.30;4.40;;;;;;;0.73;67.25;98988.36;103161;1325;24928;-83
2021/12/03 02:34:11;;;;;;;8.70;4.60;;;;;;;0.73;67.43;98994.44;103551;1320;22911;-80
2021/12/03 02:36:38;;;;;;;7.40;4.50;;;;;;;0.76;67.57;99001.38;103570;1315;25399;-81
2021/12/03 02:39:05;;;;;;;6.00;4.00;;;;;;;0.78;67.48;99005.20;103730;1320;22765;-83
2021/12/03 02:41:32;;;;;;;8.90;4.80;;;;;;;0.70;67.45;99012.09;103621;1320;22659;-84
2021/12/03 02:43:59;;;;;;;9.20;4.80;;;;;;;0.68;67.61;99009.81;103244;1321;27083;-82
2021/12/03 02:46:26;;;;;;;7.80;4.80;;;;;;;0.65;67.62;99014.30;103196;1313;23074;-78
2021/12/03 02:48:53;;;;;;;6.50;4.30;;;;;;;0.62;67.76;99019.98;103188;1321;22554;-81
2021/12/03 02:51:20;;;;;;;8.50;4.60;;;;;;;0.60;67.96;99019.27;103524;1320;24182;-78
2021/12/03 02:53:47;;;;;;;7.60;4.90;;;;;;;0.62;67.95;99029.67;103446;1320;24310;-80
2021/12/03 02:56:14;;;;;;;10.40;5.00;;;;;;;0.65;68.16;99029.89;103632;1320;22604;-80
2021/12/03 02:58:41;;;;;;;8.10;4.70;;;;;;;0.64;68.06;99035.77;103923;1320;22627;-81
2021/12/03 03:01:10;;;;;;;7.30;4.60;;;;;;;0.60;68.16;99036.60;103672;1320;22590;-79
2021/12/03 03:03:37;;;;;;;8.60;5.10;;;;;;;0.62;68.31;99041.64;104182;1315;25396;-83
2021/12/03 03:06:08;;;;;;;8.90;4.90;;;;;;;0.69;68.36;99040.30;104813;1316;22675;-82
2021/12/03 03:08:36;;;;;;;6.80;4.60;;;;;;;0.69;68.26;99043.61;103739;1320;22784;-84
2021/12/03 03:11:06;;;;;;;6.80;4.40;;;;;;;0.67;68.29;99046.71;104020;1320;25424;-82
2021/12/03 03:13:34;;;;;;;5.80;4.00;;;;;;;0.62;68.40;99044.92;103459;1318;22611;-83
2021/12/03 03:16:02;;;;;;;6.20;4.00;;;;;;;0.62;68.56;99049.95;103451;1320;22796;-84
2021/12/03 03:18:30;;;;;;;13.90;4.80;;;;;;;0.59;68.45;99047.33;103312;1320;25238;-82
2021/12/03 03:21:00;;;;;;;9.50;4.80;;;;;;;0.57;68.60;99051.12;103393;1320;25884;-83
2021/12/03 03:23:27;;;;;;;11.40;4.50;;;;;;;0.54;68.76;99056.98;103059;1321;22707;-79
2021/12/03 03:25:55;;;;;;;7.70;4.60;;;;;;;0.49;68.76;99059.54;103529;1320;24240;-80
2021/12/03 03:28:24;;;;;;;9.30;5.70;;;;;;;0.47;69.02;99062.11;103560;1320;22721;-79
2021/12/03 03:30:54;;;;;;;9.70;4.80;;;;;;;0.48;69.09;99066.63;103726;1320;24151;-82
2021/12/03 03:33:22;;;;;;;9.70;5.50;;;;;;;0.52;69.11;99065.63;104330;1317;25428;-79
2021/12/03 03:35:49;;;;;;;7.00;4.30;;;;;;;0.54;69.17;99075.17;103702;1320;25544;-79
2021/12/03 03:38:17;;;;;;;8.50;5.80;;;;;;;0.47;69.08;99075.45;103955;1320;26052;-81
2021/12/03 03:40:47;;;;;;;7.90;4.20;;;;;;;0.48;69.25;99086.04;103777;1320;25397;-83
2021/12/03 03:43:15;;;;;;;7.10;4.10;;;;;;;0.48;69.29;99090.35;103796;1320;22684;-82
2021/12/03 03:45:43;;;;;;;6.90;4.30;;;;;;;0.46;69.27;99094.33;103634;1317;25270;-82
2021/12/03 03:48:11;;;;;;;5.70;4.00;;;;;;;0.48;69.45;99098.31;103830;1320;25239;-85
2021/12/03 03:50:40;;;;;;;6.30;3.40;;;;;;;0.52;69.50;99101.65;103770;1320;24311;-82
2021/12/03 03:53:08;;;;;;;8.40;3.90;;;;;;;0.49;69.34;99105.61;103847;1320;25270;-82
2021/12/03 03:55:36;;;;;;;7.70;5.30;;;;;;;0.49;69.35;99109.08;104408;1320;22562;-84
2021/12/03 03:58:05;;;;;;;8.00;5.00;;;;;;;0.46;69.42;99111.47;103494;1318;22595;-83
2021/12/03 04:00:40;;;;;;;6.60;4.20;;;;;;;0.45;69.47;99114.06;103356;1320;23800;-83
2021/12/03 04:03:08;;;;;;;10.00;4.80;;;;;;;0.45;69.53;99115.09;103464;1320;24275;-85
2021/12/03 04:05:36;;;;;;;8.60;5.20;;;;;;;0.42;69.54;99118.50;103714;1315;22862;-82
2021/12/03 04:08:03;;;;;;;7.10;4.90;;;;;;;0.43;69.67;99115.06;103473;1321;22614;-84
2021/12/03 04:10:31;;;;;;;9.30;5.10;;;;;;;0.40;69.79;99106.20;103535;1320;24287;-85
2021/12/03 04:12:58;;;;;;;6.40;4.50;;;;;;;0.43;69.87;99113.33;103856;1320;22613;-83
2021/12/03 04:15:26;;;;;;;6.20;4.90;;;;;;;0.47;70.16;99117.36;103625;1320;24459;-83
2021/12/03 04:17:53;;;;;;;11.00;5.60;;;;;;;0.53;70.05;99117.43;103583;1320;22778;-82
2021/12/03 04:20:21;;;;;;;8.90;5.40;;;;;;;0.49;70.01;99112.53;103287;1320;22799;-83
2021/12/03 04:22:48;;;;;;;7.60;5.20;;;;;;;0.50;69.94;99118.80;103344;1320;24254;-83
2021/12/03 04:25:20;;;;;;;9.30;5.50;;;;;;;0.46;70.01;99116.66;103790;1320;217547;-84
2021/12/03 04:27:50;;;;;;;8.80;4.60;;;;;;;0.49;70.27;99121.20;103890;1320;25570;-82
2021/12/03 04:30:21;;;;;;;9.20;5.30;;;;;;;0.51;70.16;99124.52;103525;1320;24250;-83
2021/12/03 04:32:49;;;;;;;6.10;4.50;;;;;;;0.51;70.07;99126.77;103797;1322;22853;-84
2021/12/03 04:35:17;;;;;;;7.20;4.70;;;;;;;0.51;70.07;99131.61;104261;1322;25393;-83
2021/12/03 04:37:44;;;;;;;9.40;5.30;;;;;;;0.50;69.96;99138.70;104041;1322;22534;-84
2021/12/03 04:40:14;;;;;;;6.50;4.70;;;;;;;0.52;69.93;99139.76;103820;1322;22578;-83
2021/12/03 04:42:41;;;;;;;8.90;5.30;;;;;;;0.45;69.91;99137.44;103443;1322;22583;-85
2021/12/03 04:45:11;;;;;;;8.00;5.10;;;;;;;0.48;70.03;99148.91;103083;1323;23075;-83
2021/12/03 04:47:38;;;;;;;5.90;4.20;;;;;;;0.50;70.12;99153.44;103105;1322;25603;-82
2021/12/03 04:50:10;;;;;;;7.60;5.40;;;;;;;0.51;70.17;99160.36;103160;1321;24142;-82
2021/12/03 04:52:38;;;;;;;7.00;5.50;;;;;;;0.55;70.44;99157.64;103634;1314;22660;-87
2021/12/03 04:55:06;;;;;;;7.70;5.80;;;;;;;0.56;70.37;99155.92;104187;1320;22732;-87
2021/12/03 04:57:33;;;;;;;8.90;5.90;;;;;;;0.59;70.44;99158.20;105271;1313;22535;-83
2021/12/03 05:00:01;;;;;;;9.10;6.00;;;;;;;0.62;70.48;99155.65;104207;1320;22590;-82
2021/12/03 05:02:28;;;;;;;7.40;4.80;;;;;;;0.63;70.38;99155.81;104354;1320;22534;-82
2021/12/03 05:04:59;;;;;;;9.50;5.80;;;;;;;0.62;70.39;99160.67;104329;1316;22549;-83
2021/12/03 05:07:41;;;;;;;9.40;5.70;;;;;;;0.65;70.57;99170.23;105279;1317;22836;-82
2021/12/03 05:10:10;;;;;;;8.70;6.10;;;;;;;0.67;70.57;99172.17;103968;1312;22840;-80
2021/12/03 05:12:37;;;;;;;6.30;5.00;;;;;;;0.68;70.56;99178.77;103287;1317;24190;-85
2021/12/03 05:15:25;;;;;;;9.80;7.00;;;;;;;0.68;70.51;99185.34;103339;1319;22618;-89
2021/12/03 05:17:52;;;;;;;8.70;5.70;;;;;;;0.68;70.64;99191.94;103614;1320;25444;-87
2021/12/03 05:20:19;;;;;;;6.90;5.40;;;;;;;0.65;70.57;99192.06;104325;1317;25598;-79
2021/12/03 05:22:46;;;;;;;9.10;5.80;;;;;;;0.70;70.60;99199.41;103248;1320;22605;-79
2021/12/03 05:25:13;;;;;;;9.50;5.50;;;;;;;0.70;70.56;99199.92;103262;1320;22603;-82
2021/12/03 05:27:41;;;;;;;8.80;5.40;;;;;;;0.65;70.46;99202.12;103353;1317;24308;-79
2021/12/03 05:30:09;;;;;;;6.70;5.70;;;;;;;0.66;70.49;99204.20;103361;1320;25283;-81
2021/12/03 05:32:37;;;;;;;10.40;5.10;;;;;;;0.62;70.44;99203.80;103393;1320;22603;-82
2021/12/03 05:35:06;;;;;;;9.90;6.20;;;;;;;0.62;70.52;99212.48;103439;1319;22593;-82
2021/12/03 05:37:33;;;;;;;6.00;5.00;;;;;;;0.62;70.47;99211.61;103255;1320;22582;-84
2021/12/03 05:40:02;;;;;;;9.00;5.90;;;;;;;0.64;70.32;99220.66;103378;1320;25572;-79
2021/12/03 05:42:29;;;;;;;5.60;4.10;;;;;;;0.62;70.25;99224.26;103514;1320;22805;-81
2021/12/03 05:44:58;;;;;;;7.50;5.50;;;;;;;0.58;70.19;99222.48;103388;1320;22586;-81
2021/12/03 05:47:25;;;;;;;7.40;5.70;;;;;;;0.57;70.19;99225.25;103158;1320;22576;-84
2021/12/03 05:49:52;;;;;;;5.50;4.70;;;;;;;0.60;70.15;99231.69;103246;1320;22598;-84
2021/12/03 05:52:19;;;;;;;8.20;4.40;;;;;;;0.61;69.91;99227.20;103140;1320;24245;-87
2021/12/03 05:54:46;;;;;;;9.10;5.40;;;;;;;0.60;69.67;99228.57;103151;1320;22609;-79
2021/12/03 05:57:13;;;;;;;6.20;5.00;;;;;;;0.55;69.27;99234.75;103113;1320;22573;-79
2021/12/03 05:59:40;;;;;;;5.40;4.90;;;;;;;0.50;69.00;99230.35;103249;1320;25443;-80
2021/12/03 06:02:07;;;;;;;6.30;5.00;;;;;;;0.48;68.99;99229.98;103294;1320;22601;-81
2021/12/03 06:04:35;;;;;;;6.40;4.80;;;;;;;0.40;68.90;99227.64;103072;1321;22609;-84
2021/12/03 06:07:02;;;;;;;4.40;4.00;;;;;;;0.40;68.62;99234.89;103320;1321;22624;-80
2021/12/03 06:09:30;;;;;;;4.90;4.00;;;;;;;0.39;68.30;99239.73;103196;1320;22614;-82
2021/12/03 06:11:57;;;;;;;4.90;4.00;;;;;;;0.39;68.50;99237.83;103382;1319;22590;-80
2021/12/03 06:14:23;;;;;;;5.80;3.70;;;;;;;0.40;68.32;99244.42;103458;1319;22701;-80
2021/12/03 06:16:50;;;;;;;6.10;4.60;;;;;;;0.40;68.29;99242.51;103584;1319;22567;-78
2021/12/03 06:19:17;;;;;;;6.00;4.60;;;;;;;0.41;68.36;99249.98;103244;1320;25526;-81
2021/12/03 06:21:44;;;;;;;7.00;5.60;;;;;;;0.38;68.40;99253.75;103013;1320;22620;-83
2021/12/03 06:24:11;;;;;;;7.20;5.50;;;;;;;0.38;68.49;99253.23;103376;1320;22578;-81
2021/12/03 06:26:38;;;;;;;5.60;4.50;;;;;;;0.32;68.23;99248.11;103251;1320;24251;-80
2021/12/03 06:29:05;;;;;;;6.30;5.10;;;;;;;0.29;68.17;99245.83;103504;1320;22593;-79
2021/12/03 06:31:33;;;;;;;6.50;4.30;;;;;;;0.32;68.14;99255.56;103263;1319;23990;-81
2021/12/03 06:34:10;;;;;;;5.30;4.10;;;;;;;0.29;67.73;99264.36;103519;1320;24223;-88
2021/12/03 06:36:53;;;;;;;4.70;3.50;;;;;;;0.21;67.25;99262.86;103117;1324;25360;-79
2021/12/03 06:39:20;;;;;;;6.20;4.10;;;;;;;0.17;67.60;99269.21;103253;1322;22784;-79
2021/12/03 06:41:50;;;;;;;4.00;3.60;;;;;;;0.16;67.57;99272.66;103410;1323;23061;-81
2021/12/03 06:44:25;;;;;;;3.80;3.40;;;;;;;0.08;67.16;99267.17;102920;1328;27160;-81
2021/12/03 06:46:56;;;;;;;4.60;3.40;;;;;;;0.05;67.19;99289.80;103667;1328;24254;-83
2021/12/03 06:49:29;;;;;;;5.70;4.20;;;;;;;-0.00;67.30;99291.80;103014;1328;23441;-83
2021/12/03 06:52:02;;;;;;;4.80;3.90;;;;;;;-0.03;67.35;99302.30;102267;1332;24547;-81
2021/12/03 06:54:31;;;;;;;6.30;3.70;;;;;;;-0.03;67.54;99308.73;102266;1329;22575;-81
2021/12/03 06:57:00;;;;;;;3.80;3.30;;;;;;;-0.04;67.45;99308.35;102805;1328;24152;-79
2021/12/03 06:59:27;;;;;;;4.60;4.00;;;;;;;-0.05;67.60;99313.37;102754;1329;25403;-82
2021/12/03 07:01:55;;;;;;;4.40;4.00;;;;;;;-0.02;67.54;99321.88;102635;1325;22584;-81
2021/12/03 07:04:23;;;;;;;4.80;3.90;;;;;;;-0.04;67.65;99319.95;102551;1327;25464;-80
2021/12/03 07:06:51;;;;;;;4.80;4.30;;;;;;;-0.05;67.72;99327.73;102570;1330;22782;-81
2021/12/03 07:09:18;;;;;;;6.50;4.50;;;;;;;-0.05;68.02;99331.88;102382;1326;22577;-80
2021/12/03 07:11:45;;;;;;;8.70;5.30;;;;;;;-0.06;68.24;99330.30;102654;1323;24098;-81
2021/12/03 07:14:13;;;;;;;4.60;4.10;;;;;;;-0.05;68.15;99330.84;102891;1325;22785;-84
2021/12/03 07:16:40;;;;;;;4.60;4.10;;;;;;;-0.13;68.13;99322.75;102780;1319;22572;-81
2021/12/03 07:19:07;;;;;;;7.80;5.10;;;;;;;-0.13;68.45;99330.20;103250;1325;22543;-81
2021/12/03 07:21:34;;;;;;;4.80;4.40;;;;;;;-0.10;68.60;99337.50;102906;1324;24321;-81
2021/12/03 07:24:01;;;;;;;5.70;4.80;;;;;;;-0.10;68.64;99339.92;103414;1319;25267;-80
2021/12/03 07:26:28;;;;;;;7.70;5.20;;;;;;;-0.07;68.78;99345.17;103638;1319;22593;-80
2021/12/03 07:28:55;;;;;;;6.60;4.90;;;;;;;-0.05;68.74;99349.70;103498;1319;25399;-80
2021/12/03 07:31:22;;;;;;;4.80;4.10;;;;;;;-0.03;68.81;99345.77;103409;1320;25396;-80
2021/12/03 07:33:52;;;;;;;5.50;3.90;;;;;;;-0.02;68.58;99358.58;103612;1318;23956;-83
2021/12/03 07:36:20;;;;;;;4.30;3.70;;;;;;;-0.01;68.41;99365.89;103503;1318;23902;-82
2021/12/03 07:38:47;;;;;;;5.90;3.70;;;;;;;-0.00;68.36;99365.72;102777;1325;25282;-82
2021/12/03 07:41:14;;;;;;;5.80;4.30;;;;;;;-0.02;68.19;99359.80;102872;1324;22651;-79
2021/12/03 07:43:42;;;;;;;6.80;4.80;;;;;;;0.03;68.41;99366.46;102870;1325;22812;-83
2021/12/03 07:46:09;;;;;;;6.70;5.00;;;;;;;0.08;68.47;99367.59;102805;1325;24007;-81
2021/12/03 07:48:46;;;;;;;6.60;5.80;;;;;;;0.14;68.50;99374.61;102192;1333;23960;-82
2021/12/03 07:51:16;;;;;;;6.50;5.80;;;;;;;0.13;67.95;99373.21;102024;1328;23964;-83
2021/12/03 07:53:45;;;;;;;5.10;4.70;;;;;;;0.08;67.53;99378.14;101544;1337;22930;-81
2021/12/03 07:56:12;;;;;;;9.50;4.70;;;;;;;0.03;67.61;99373.56;101486;1339;22546;-81
2021/12/03 07:58:39;;;;;;;5.10;4.60;;;;;;;0.03;67.52;99371.48;101453;1338;24253;-82
2021/12/03 08:01:06;;;;;;;6.00;5.10;;;;;;;0.00;67.62;99369.36;101589;1337;25453;-82
2021/12/03 08:03:33;;;;;;;5.60;4.70;;;;;;;-0.05;67.64;99366.49;101680;1333;26604;-82
2021/12/03 08:06:06;;;;;;;5.70;4.80;;;;;;;0.01;67.74;99387.03;102155;1325;22596;-81
2021/12/03 08:08:36;;;;;;;6.30;4.90;;;;;;;0.02;67.71;99386.52;103156;1322;22561;-80
2021/12/03 08:11:04;;;;;;;6.00;4.80;;;;;;;0.02;67.63;99386.87;103047;1321;22633;-81
2021/12/03 08:13:33;;;;;;;4.60;3.80;;;;;;;0.05;67.79;99382.43;103402;1320;25276;-82
2021/12/03 08:16:02;;;;;;;4.90;3.30;;;;;;;0.11;67.73;99374.21;103361;1321;25385;-81
2021/12/03 08:18:29;;;;;;;4.30;3.80;;;;;;;0.23;67.68;99383.58;103290;1319;24308;-82
2021/12/03 08:20:57;;;;;;;5.30;3.30;;;;;;;0.30;67.33;99376.94;102740;1324;23239;-82
2021/12/03 08:23:25;;;;;;;6.20;4.30;;;;;;;0.26;67.17;99376.53;102881;1325;24269;-82
2021/12/03 08:25:52;;;;;;;5.20;4.00;;;;;;;0.27;67.33;99370.15;102708;1325;22627;-83
2021/12/03 08:28:20;;;;;;;3.60;3.20;;;;;;;0.36;67.35;99370.98;102985;1322;22656;-82
2021/12/03 08:30:48;;;;;;;3.90;3.10;;;;;;;0.38;67.05;99381.39;102782;1325;22560;-80
2021/12/03 08:33:17;;;;;;;7.40;3.50;;;;;;;0.35;66.84;99378.06;103001;1327;22639;-82
2021/12/03 08:35:44;;;;;;;5.70;3.40;;;;;;;0.41;67.16;99382.14;103554;1324;24482;-81
2021/12/03 08:38:11;;;;;;;4.80;3.40;;;;;;;0.47;67.00;99369.95;103917;1324;22683;-81
2021/12/03 08:40:58;;;;;;;4.90;2.40;;;;;;;0.60;66.57;99379.83;104254;1320;22616;-79
2021/12/03 08:43:25;;;;;;;5.20;3.30;;;;;;;0.63;66.55;99379.53;104292;1318;22589;-79
2021/12/03 08:45:55;;;;;;;5.20;3.40;;;;;;;0.68;66.21;99377.54;104443;1320;22497;-82
2021/12/03 08:48:24;;;;;;;3.90;3.40;;;;;;;0.77;66.25;99390.84;103633;1327;24253;-80
2021/12/03 08:56:23;;;;;;;4.70;3.70;;;;;;;0.97;65.82;99378.63;103759;1325;24244;-79
2021/12/03 08:58:51;;;;;;;3.80;3.20;;;;;;;1.04;65.56;99376.11;103300;1326;23124;-79
2021/12/03 09:01:17;;;;;;;4.60;3.10;;;;;;;1.09;65.28;99376.19;103137;1321;23184;-80
2021/12/03 09:03:46;;;;;;;6.00;4.50;;;;;;;1.14;65.12;99387.00;102934;1321;25285;-81
2021/12/03 09:06:13;;;;;;;3.80;3.40;;;;;;;1.23;65.45;99382.10;103130;1320;25233;-82
2021/12/03 09:08:40;;;;;;;6.80;3.70;;;;;;;1.28;64.87;99381.27;103459;1321;22594;-81
2021/12/03 09:11:07;;;;;;;6.30;3.20;;;;;;;1.40;64.93;99385.23;103300;1320;24242;-80
2021/12/03 09:13:34;;;;;;;6.10;3.40;;;;;;;1.44;64.50;99383.55;103137;1319;22597;-80
2021/12/03 09:16:05;;;;;;;4.10;3.30;;;;;;;1.51;64.53;99386.58;103180;1320;26532;-80
2021/12/03 09:18:36;;;;;;;5.20;3.70;;;;;;;1.61;64.14;99375.41;103190;1317;22593;-81
2021/12/03 09:21:23;;;;;;;4.50;2.40;;;;;;;1.62;63.91;99377.85;103188;1320;24121;-81
2021/12/03 09:26:19;;;;;;;6.00;2.80;;;;;;;1.58;63.87;99364.11;103156;1317;22585;-80
2021/12/03 09:28:52;;;;;;;5.70;3.20;;;;;;;1.64;63.59;99371.27;103120;1321;26767;-81
2021/12/03 09:31:22;;;;;;;7.60;3.20;;;;;;;1.70;63.47;99364.92;103084;1326;22681;-80
2021/12/03 09:33:50;;;;;;;7.70;3.40;;;;;;;1.75;62.93;99358.38;103473;1324;22542;-81
2021/12/03 09:36:18;;;;;;;5.00;3.00;;;;;;;1.76;62.69;99369.15;103256;1324;25888;-81
2021/12/03 09:38:45;;;;;;;7.40;3.10;;;;;;;1.74;62.84;99364.27;103071;1324;24351;-81
2021/12/03 09:41:15;;;;;;;8.60;3.40;;;;;;;1.86;62.99;99356.40;102724;1324;22718;-83
2021/12/03 09:43:48;;;;;;;5.10;3.30;;;;;;;2.01;62.99;99353.92;102641;1324;26025;-80
2021/12/03 09:46:20;;;;;;;5.60;3.70;;;;;;;1.98;62.05;99354.42;102758;1324;23955;-81
2021/12/03 09:49:05;;;;;;;11.30;3.90;;;;;;;1.87;62.20;99352.06;102456;1325;26558;-81
2021/12/03 09:52:03;;;;;;;7.20;3.60;;;;;;;1.98;62.72;99351.30;102776;1325;22650;-81
2021/12/03 09:54:40;;;;;;;4.60;3.10;;;;;;;2.06;62.47;99347.55;102993;1322;22571;-81
2021/12/03 09:57:13;;;;;;;7.60;3.90;;;;;;;2.06;62.22;99347.20;104472;1323;22663;-79
2021/12/03 10:11:38;;;;;;;6.20;3.90;;;;;;;2.52;60.70;99323.21;103472;1320;22558;-81
2021/12/03 10:14:01;;;;;;;6.40;3.80;;;;;;;2.41;60.17;99316.55;103316;1321;22581;-81
2021/12/03 10:19:01;;;;;;;6.00;3.90;;;;;;;2.07;60.73;99320.12;104107;1320;24244;-79
2021/12/03 10:30:25;;;;;;;4.30;2.90;;;;;;;2.15;60.84;99307.86;104121;1326;22467;-79
2021/12/03 10:49:28;;;;;;;4.80;3.20;;;;;;;2.93;59.24;99304.66;103265;1320;22588;-83
2021/12/03 11:29:37;;;;;;;7.20;3.60;;;;;;;2.01;62.05;99309.83;103076;1320;25237;-80
2021/12/03 13:59:56;;;;;;;10.10;4.70;;;;;;;1.62;66.88;99432.01;103338;1322;22583;-83
2021/12/03 14:43:45;;;;;;;10.90;4.90;;;;;;;1.58;66.83;99480.55;103350;1325;22586;-83
2021/12/03 14:49:13;;;;;;;11.60;5.00;;;;;;;1.55;67.01;99485.20;103628;1323;25535;-82
2021/12/03 14:51:59;;;;;;;10.50;5.10;;;;;;;1.55;66.86;99484.67;103587;1325;24202;-82
2021/12/03 14:57:13;;;;;;;9.00;6.00;;;;;;;1.55;66.85;99492.48;104060;1322;25316;-81
2021/12/03 14:59:57;;;;;;;12.00;5.10;;;;;;;1.57;66.96;99497.55;103883;1319;22582;-83
2021/12/03 15:05:12;;;;;;;10.30;5.10;;;;;;;1.61;66.82;99496.55;103410;1320;24237;-82
2021/12/03 15:07:44;;;;;;;10.60;5.40;;;;;;;1.60;66.75;99500.54;103369;1320;26580;-82
2021/12/03 15:10:22;;;;;;;10.40;5.70;;;;;;;1.58;66.62;99508.67;103184;1320;22802;-82
2021/12/03 15:13:06;;;;;;;9.80;4.40;;;;;;;1.54;66.80;99508.79;103335;1321;22595;-83
2021/12/03 15:18:53;;;;;;;11.20;4.60;;;;;;;1.46;66.82;99518.73;103379;1318;24543;-83
2021/12/03 15:21:34;;;;;;;11.30;4.90;;;;;;;1.40;66.99;99516.06;103293;1319;25282;-82
2021/12/03 15:24:37;;;;;;;12.20;5.60;;;;;;;1.42;67.00;99524.24;103163;1319;23207;-82
2021/12/03 15:31:01;;;;;;;11.00;5.30;;;;;;;1.46;67.03;99523.25;103274;1320;22732;-73
2021/12/03 15:33:13;;;;;;;13.30;5.40;;;;;;;1.46;66.95;99526.55;103328;1320;23986;-76
2021/12/03 15:41:05;;;;;;;14.30;5.30;;;;;;;1.40;67.12;99524.20;103229;1320;23135;-77
2021/12/03 16:08:29;;;;;;;9.70;5.10;;;;;;;1.41;67.07;99557.53;103311;1316;25564;-77
2021/12/03 16:11:44;;;;;;;12.00;5.30;;;;;;;1.41;67.09;99564.66;103211;1322;22601;-77
2021/12/03 16:27:54;;;;;;;9.80;4.80;;;;;;;1.67;66.77;99567.11;103261;1319;22764;-79
2021/12/03 16:46:26;;;;;;;13.10;5.60;;;;;;;1.65;66.64;99590.69;103547;1313;22577;-78
2021/12/03 16:51:46;;;;;;;13.30;5.40;;;;;;;1.61;66.77;99601.73;103202;1320;22580;-79
2021/12/03 16:54:21;;;;;;;9.50;5.60;;;;;;;1.63;66.82;99597.59;102984;1321;23429;-79
2021/12/03 16:56:51;;;;;;;11.10;6.30;;;;;;;1.62;66.83;99590.46;103119;1322;22584;-81
2021/12/03 16:59:20;;;;;;;16.90;5.90;;;;;;;1.65;66.93;99598.31;103147;1320;22791;-80
2021/12/03 17:01:55;;;;;;;11.50;6.20;;;;;;;1.65;66.82;99604.75;103496;1320;23618;-79
2021/12/03 17:50:05;;;;;;;11.60;5.80;;;;;;;1.57;66.43;99613.98;103786;1319;25656;-80
2021/12/03 17:52:51;;;;;;;8.80;4.70;;;;;;;1.59;66.36;99613.52;103444;1319;23930;-81
2021/12/03 18:00:23;;;;;;;10.90;5.20;;;;;;;1.52;66.22;99612.71;103604;1319;22559;-83
2021/12/03 18:02:53;;;;;;;11.60;6.00;;;;;;;1.53;66.31;99611.52;103402;1319;25335;-79
2021/12/03 18:08:05;;;;;;;12.70;5.50;;;;;;;1.54;66.01;99617.77;103539;1319;23245;-82
2021/12/03 18:46:13;;;;;;;7.20;4.30;;;;;;;1.25;65.06;99653.05;103497;1319;24232;-82
2021/12/03 18:56:04;;;;;;;11.50;5.00;;;;;;;1.29;65.12;99667.02;103542;1319;25342;-83
2021/12/03 18:58:32;;;;;;;12.70;5.80;;;;;;;1.31;65.28;99667.38;103748;1319;25407;-80
2021/12/03 19:01:00;;;;;;;12.30;5.60;;;;;;;1.34;65.28;99672.30;103699;1319;22637;-80
2021/12/03 19:11:14;;;;;;;16.20;7.60;;;;;;;1.37;65.10;99676.50;103593;1319;22813;-83
2021/12/03 19:13:41;;;;;;;11.20;6.30;;;;;;;1.40;64.94;99682.98;103818;1322;25270;-82
2021/12/03 19:16:13;;;;;;;13.90;8.20;;;;;;;1.42;64.80;99683.87;103712;1320;22622;-83
2021/12/03 19:18:45;;;;;;;13.50;7.20;;;;;;;1.41;64.68;99684.74;103656;1320;24267;-81